Logo AVAMET
Benvolgut visitant, si us plau, ingressa Recuperar contrasenya

la Serra d′en Galceran els Ivarsos

Dades diàries. Acumulats / Últims 30 dies disponibles

Data Temperatura (°C) Humitat rel. (%) Pressió rel. (hPa) Vent (km/h) Precipitació
Mínima Mitjana Màxima Amplitud
tèrmica
Mínima Mitjana Màxima Mínima Mitjana Màxima Predom. Mitjana Ràfega
màxima
Total
(mm)
Índex-n
Mínima Mitjana Màxima Mínima Mitjana Màxima n
0 a 1
P0 max
mm 5'
Dades mensuals acumulades fins l'últim dia disponible
05/2019 5,3 10,1 14,9 16,2 16,9 22,3 28,9 23,6 18 63 93 1.001 1.014 1.025   7,7 69,2 12,4
Dades anuals acumulades fins l'últim dia disponible
2019 -1,4 6,4 14,9 12,2 8,9 18,4 28,9 30,3 14 59 93 989 1.019 1.036   9,5 128,7 85,2
Últims 30 dies disponibles
23-05-2019 11,2     18,6     24,9 13,7 54 75 90 1.015 1.017 1.019 NNW 5,1 19,3 0,0
22-05-2019 8,9     16,7     23,2 14,3 46 71 90 1.017 1.018 1.019 ESE 6,8 27,4 0,0
21-05-2019 10,3     15,5     22,6 12,3 49 69 88 1.014 1.016 1.017 NW 6,3 27,4 5,6
20-05-2019 8,9     16,5     22,1 13,2 31 52 81 1.012 1.013 1.015 SE 6,1 30,6 0,0
19-05-2019 6,5     14,7     20,8 14,3 35 56 82 1.009 1.010 1.013 NNW 8,2 40,2 0,0
18-05-2019 9,1     14,1     17,7 8,6 44 59 76 1.008 1.009 1.011 NNW 6,3 35,4 1,0
17-05-2019 12,9     16,1     20,3 7,4 41 58 92 1.001 1.004 1.009 WNW 12,4 57,9 0,0
16-05-2019 12,6     15,9     21,9 9,3 55 76 88 1.006 1.011 1.016 SSE 6,8 27,4 0,0
15-05-2019 11,1     16,3     23,5 12,4 51 71 88 1.011 1.013 1.016 E 9,7 40,2 0,0
14-05-2019 9,0     16,7     23,9 14,9 27 55 78 1.015 1.018 1.022 NW 7,7 30,6 0,0
13-05-2019 8,1     16,2     23,1 15,0 27 59 90 1.019 1.020 1.022 ESE 7,7 35,4 0,0
12-05-2019 8,0     17,4     24,2 16,2 18 43 78 1.019 1.022 1.025 SSE 6,8 38,6 0,0
11-05-2019 14,9     20,4     25,1 10,2 30 61 79 1.015 1.018 1.023 SE 8,2 41,8 0,0
10-05-2019 12,9     21,1     28,9 16,0 41 60 83 1.011 1.012 1.015 NNW 8,5 30,6 0,0
09-05-2019 11,1     18,1     24,8 13,7 34 57 76 1.010 1.011 1.012 ESE 6,9 33,8 0,0
08-05-2019 13,7     18,7     25,7 12,0 40 70 93 1.008 1.010 1.015 W 6,1 43,5 0,0
07-05-2019 7,3     14,8     21,7 14,4 60 75 89 1.015 1.017 1.019 NNW 6,4 29,0 0,0
06-05-2019 5,3     12,9     19,5 14,2 42 61 85 1.017 1.018 1.020 N 6,9 24,1 0,0
05-05-2019 9,0     14,9     20,1 11,1 23 45 82 1.013 1.015 1.017 NNW 16,3 69,2 0,0
04-05-2019 10,7     14,9     20,7 10,0 40 54 74 1.011 1.013 1.014 NNW 12,2 46,7 0,0
03-05-2019 9,6     12,2     16,9 7,3 59 81 92 1.011 1.013 1.016 NNW 4,5 38,6 5,4
02-05-2019 11,5     15,3     20,2 8,7 56 75 88 1.014 1.015 1.016 ESE 5,3 27,4 0,4
01-05-2019 9,8     14,8     21,3 11,5 53 77 92 1.014 1.015 1.017 SSE 5,1 30,6 0,0
30-04-2019 10,3     15,0     19,9 9,6 64 79 88 1.016 1.017 1.019 WNW 6,4 35,4 0,0
29-04-2019 6,8     13,8     20,6 13,8 53 74 90 1.017 1.019 1.021 NNW 6,6 24,1 0,0
28-04-2019 9,5     15,4     21,6 12,1 48 65 81 1.019 1.022 1.025 SSE 6,9 25,7 0,0
27-04-2019 6,6     14,8     21,7 15,1 32 56 77 1.024 1.025 1.027 NNW 7,1 29,0 0,0
26-04-2019 5,1     13,6     21,6 16,5 33 56 80 1.016 1.021 1.026 SE 5,8 27,4 0,0
25-04-2019 10,7     16,1     20,8 10,1 30 59 81 1.008 1.010 1.016 SE 8,7 49,9 0,0
24-04-2019 6,2     12,5     18,9 12,7 45 63 86 1.002 1.007 1.010 SW 8,0 45,1 0,0
Últims 13 mesos disponibles
04/2019 2,3 8,0 11,9 13,2 14,3 18,6 26,9 24,6 46 65 83 998 1.013 1.025 NNW 9,0 75,6 58,8
03/2019 2,8 6,6 10,4 13,0 11,3 19,7 26,7 23,9 36 53 83 1.010 1.023 1.030 NNW 9,0 69,2 12,6
02/2019 -0,8 4,3 9,7 10,3 8,9 17,6 25,8 26,6 35 60 77 992 1.024 1.034 NNW 9,0 128,7 0,0
01/2019 -1,4 4,1 11,6 9,5 9,5 14,9 20,7 22,1 22 55 80 1.000 1.018 1.031 NNW 12,1 82,1 1,4
12/2018 1,2 5,4 8,9 10,6 11,5 17,6 23,1 21,9 46 71 85 1.007 1.025 1.031 NNW 6,1 83,7 8,6
11/2018 3,7 7,6 13,8 11,9 12,7 17,1 21,9 18,2 49 76 91 1.002 1.015 1.024 NNW 6,7 85,3 122,6
10/2018 5,7 11,8 16,9 16,6 11,4 21,8 27,6 21,9 32 69 92 998 1.014 1.026 NNW 8,5 78,9 238,2
09/2018 12,7 17,1 21,5 22,1 22,6 27,8 32,8 20,1 56 75 88 1.012 1.020 1.030 NNW 6,3 72,4 55,6
08/2018 17,5 19,8 24,0 25,2 26,6 31,0 35,8 18,3 45 63 83 1.011 1.016 1.022 NNW 7,3 57,9 32,4
07/2018 15,6 18,8 21,9 25,2 25,7 31,1 33,7 18,1 ESE 8,0 56,3 28,0
06/2018 12,5 16,2 19,4 22,0 20,7 27,6 33,4 20,9 ESE 7,6 54,7 17,6
05/2018 2,6 12,1 15,4 17,2 15,3 22,8 26,2 23,6 NNW 8,5 66,0 67,4
04/2018 2,6 8,4 13,4 14,6 12,1 20,7 27,0 24,4 NNW 7,5 54,7 49,4
Tots els anys disponibles
2018 -1,4 11,1 24,0 16,4 5,6 22,2 35,8 37,2 NNW 8,0 85,3 698,8
2017
Temperatura (°C)
Humitat relativa (%)
Velocitat del vent i ràfega màxima (km/h)
Direcció del vent (°)
Pressió (hPa)
Precipitació (mm)
Nota sobre les dades: s'avisa a l'usuari de la provisionalitat i no oficialitat d'aquestes dades
Logo AVAMET blanc
Web allotjada a Sollutia
Llicència de Creative CommonsLa web d'AVAMET i els seus continguts estan subjectes a una llicència de
Reconeixement - No Comercial - Compartir igual
Properes estacions: Altea - Club Nàutic d'Altea (Soci), Ontinyent - El Pilar (Soci), Ares del Maestrat (Ajuntament Soci), Catadau - L'Altet (Inforatge)     - - - - -      Últimes estacions: Asp - Poliesportiu (Soci), Jacarilla - centro (MeteOrihuela), Elx - Maitino/Vallverda/Velarde/Matola/Ferriol (Soci TiempoElche.com), Orihuela - Playa Flamenca (MeteOrihuela), - - -